Time;durP1;ratioP1;P1;durP2;ratioP2;P2;SDS_P1;SDS_P2;PMS_P1;PMS_P2;Temp;Humidity;BMP_temperature;BMP_pressure;BME280_temperature;BME280_humidity;BME280_pressure;Samples;Min_cycle;Max_cycle;Signal;HPM_P1;HPM_P2
2022/01/28 00:01:52;;;;;;;5.75;3.50;;;19.40;48.40;;;;;;6172328;28;20027;-76
2022/01/28 00:04:54;;;;;;;6.22;3.58;;;19.40;48.40;;;;;;6171993;28;20465;-77
2022/01/28 00:07:55;;;;;;;5.07;3.10;;;19.40;48.50;;;;;;6170306;28;20041;-76
2022/01/28 00:10:56;;;;;;;6.03;3.42;;;19.40;48.40;;;;;;6170215;28;20442;-77
2022/01/28 00:14:11;;;;;;;5.68;3.03;;;19.40;48.50;;;;;;6166219;28;20030;-76
2022/01/28 00:39:57;;;;;;;4.97;2.90;;;19.40;48.50;;;;;;6171254;28;20340;-76
2022/01/28 00:42:57;;;;;;;5.13;2.78;;;19.40;48.40;;;;;;6154475;28;20496;-76
2022/01/28 00:45:58;;;;;;;4.45;3.10;;;19.40;48.40;;;;;;6171406;28;20098;-77
2022/01/28 00:48:59;;;;;;;7.07;3.63;;;19.40;48.40;;;;;;6170986;28;20027;-76
2022/01/28 00:51:59;;;;;;;5.20;3.45;;;19.40;48.40;;;;;;6170598;28;20085;-76
2022/01/28 00:55:00;;;;;;;6.32;3.30;;;19.40;48.30;;;;;;6170569;28;20089;-76
2022/01/28 00:58:00;;;;;;;4.53;2.88;;;19.40;48.40;;;;;;6171186;28;20500;-76
2022/01/28 01:01:01;;;;;;;4.72;3.20;;;19.40;48.40;;;;;;6170787;28;20066;-76
2022/01/28 01:04:01;;;;;;;5.15;2.83;;;19.40;48.30;;;;;;6170851;28;20019;-75
2022/01/28 01:07:03;;;;;;;6.47;3.08;;;19.40;48.30;;;;;;6171385;28;20030;-75
2022/01/28 01:10:05;;;;;;;7.20;2.90;;;19.40;48.20;;;;;;6170509;28;20023;-76
2022/01/28 01:13:05;;;;;;;5.15;3.30;;;19.40;48.30;;;;;;6171292;28;20031;-77
2022/01/28 01:16:08;;;;;;;5.13;3.00;;;19.40;48.40;;;;;;6170802;28;20066;-77
2022/01/28 01:22:10;;;;;;;4.97;3.00;;;19.40;48.40;;;;;;6171340;28;20023;-77
2022/01/28 01:25:18;;;;;;;5.18;3.03;;;19.40;48.20;;;;;;6170470;28;20089;-77
2022/01/28 01:28:21;;;;;;;4.95;2.90;;;19.40;48.30;;;;;;6174562;28;20441;-77
2022/01/28 01:31:21;;;;;;;5.97;3.50;;;19.40;48.10;;;;;;6175448;28;20058;-76
2022/01/28 01:34:23;;;;;;;4.03;2.50;;;19.40;48.30;;;;;;6154416;28;20085;-77
2022/01/28 01:37:23;;;;;;;4.45;2.72;;;19.40;48.40;;;;;;6151688;28;20070;-74
2022/01/28 01:40:30;;;;;;;5.13;2.95;;;19.40;48.30;;;;;;6147634;29;20031;-76
2022/01/28 01:43:56;;;;;;;5.28;3.20;;;19.40;48.30;;;;;;6155245;28;20123;-77
2022/01/28 01:52:02;;;;;;;6.10;3.28;;;19.40;48.30;;;;;;6174722;28;20026;-77
2022/01/28 01:54:11;;;;;;;4.63;2.92;;;19.40;48.10;;;;;;6174598;28;20066;-78
2022/01/28 01:57:13;;;;;;;5.18;3.05;;;19.40;48.20;;;;;;6175226;28;20111;-78
2022/01/28 02:00:15;;;;;;;4.85;2.70;;;19.40;48.30;;;;;;6174779;28;20027;-76
2022/01/28 02:03:16;;;;;;;5.15;2.88;;;19.40;48.30;;;;;;6174890;28;20102;-76
2022/01/28 02:06:21;;;;;;;5.38;3.35;;;19.40;48.30;;;;;;6174605;28;20389;-77
2022/01/28 02:09:22;;;;;;;6.15;2.85;;;19.40;48.20;;;;;;6174520;28;20027;-77
2022/01/28 02:12:23;;;;;;;5.18;3.00;;;19.40;48.30;;;;;;6174607;28;20073;-77
2022/01/28 02:15:23;;;;;;;7.05;2.83;;;19.40;48.20;;;;;;6173809;28;20077;-77
2022/01/28 02:18:24;;;;;;;5.13;2.80;;;19.40;48.20;;;;;;6174368;28;20033;-77
2022/01/28 02:21:25;;;;;;;5.13;2.72;;;19.40;48.10;;;;;;6174136;28;20025;-77
2022/01/28 02:24:34;;;;;;;7.32;3.00;;;19.30;48.20;;;;;;6174774;28;20027;-76
2022/01/28 02:27:35;;;;;;;5.03;3.03;;;19.40;48.20;;;;;;6173825;28;20109;-76
2022/01/28 02:30:36;;;;;;;4.72;2.85;;;19.40;48.30;;;;;;6174183;28;20382;-76
2022/01/28 02:33:37;;;;;;;5.05;2.53;;;19.30;48.20;;;;;;6173469;28;20042;-76
2022/01/28 02:36:38;;;;;;;4.47;2.90;;;19.40;48.20;;;;;;6174106;28;20083;-76
2022/01/28 02:39:38;;;;;;;4.35;2.60;;;19.30;48.20;;;;;;6173009;28;20030;-77
2022/01/28 02:42:54;;;;;;;6.15;2.83;;;19.30;48.10;;;;;;6154414;28;20031;-77
2022/01/28 02:46:01;;;;;;;8.02;3.30;;;19.40;48.20;;;;;;6149487;28;20123;-76
2022/01/28 02:49:08;;;;;;;5.40;2.80;;;19.30;48.10;;;;;;6149541;29;20035;-77
2022/01/28 02:52:17;;;;;;;5.35;2.75;;;19.40;48.10;;;;;;6149803;29;20117;-77
2022/01/28 02:55:18;;;;;;;6.70;2.72;;;19.30;48.10;;;;;;6150083;29;20054;-76
2022/01/28 02:58:21;;;;;;;5.28;3.05;;;19.40;48.10;;;;;;6149957;29;20023;-76
2022/01/28 03:01:22;;;;;;;4.63;2.85;;;19.30;48.10;;;;;;6149132;29;20463;-77
2022/01/28 03:07:49;;;;;;;6.22;3.28;;;19.30;48.10;;;;;;6148324;29;20398;-76
2022/01/28 03:17:28;;;;;;;4.90;2.60;;;19.30;48.10;;;;;;6149511;29;20044;-77
2022/01/28 03:20:37;;;;;;;5.47;2.90;;;19.30;48.10;;;;;;6148984;29;20048;-77
2022/01/28 03:23:39;;;;;;;4.75;2.90;;;19.30;48.20;;;;;;6148930;29;20038;-76
2022/01/28 03:26:40;;;;;;;5.40;2.97;;;19.30;48.10;;;;;;6153934;28;20073;-76
2022/01/28 03:29:40;;;;;;;4.75;2.50;;;19.30;48.00;;;;;;6172927;28;20050;-76
2022/01/28 03:32:41;;;;;;;5.78;2.97;;;19.30;48.20;;;;;;6165169;28;20027;-76
2022/01/28 03:35:41;;;;;;;5.38;2.90;;;19.30;48.20;;;;;;6148108;29;20035;-75
2022/01/28 03:38:43;;;;;;;7.75;3.22;;;19.30;48.10;;;;;;6148481;28;20031;-77
2022/01/28 03:41:43;;;;;;;4.63;2.45;;;19.30;48.10;;;;;;6148454;28;20026;-76
2022/01/28 03:44:44;;;;;;;5.70;3.10;;;19.30;48.10;;;;;;6148327;29;20051;-74
2022/01/28 03:47:45;;;;;;;7.03;2.78;;;19.30;48.20;;;;;;6148416;29;20031;-77
2022/01/28 03:50:45;;;;;;;5.80;3.00;;;19.30;48.10;;;;;;6147283;28;20035;-77
2022/01/28 03:53:46;;;;;;;5.38;2.70;;;19.30;48.00;;;;;;6148207;29;20391;-77
2022/01/28 03:56:46;;;;;;;4.65;2.83;;;19.30;48.20;;;;;;6148469;29;20035;-76
2022/01/28 04:00:37;;;;;;;5.30;2.92;;;19.30;48.10;;;;;;6149169;28;20042;-77
2022/01/28 04:03:43;;;;;;;4.50;2.33;;;19.30;48.20;;;;;;6147936;28;20379;-76
2022/01/28 04:13:25;;;;;;;4.75;2.92;;;19.30;48.10;;;;;;6148108;29;20032;-77
2022/01/28 04:16:33;;;;;;;7.28;3.10;;;19.30;48.10;;;;;;6147536;29;20035;-77
2022/01/28 04:19:35;;;;;;;4.43;2.67;;;19.30;48.10;;;;;;6147971;29;20481;-77
2022/01/28 04:22:36;;;;;;;5.75;2.78;;;19.30;48.10;;;;;;6147786;29;20050;-76
2022/01/28 04:25:36;;;;;;;6.25;2.80;;;19.30;48.10;;;;;;6146256;29;20035;-77
2022/01/28 04:28:37;;;;;;;5.65;2.80;;;19.30;48.00;;;;;;6168060;28;20057;-76
2022/01/28 04:31:42;;;;;;;5.28;2.58;;;19.30;47.90;;;;;;6171591;28;20057;-77
2022/01/28 04:34:42;;;;;;;5.32;2.63;;;19.30;48.10;;;;;;6147312;28;20043;-76
2022/01/28 04:41:02;;;;;;;4.28;2.50;;;19.30;48.00;;;;;;6147391;28;20019;-77
2022/01/28 04:44:12;;;;;;;4.85;2.40;;;19.30;48.00;;;;;;6147214;29;20484;-76
2022/01/28 04:47:28;;;;;;;6.47;2.50;;;19.30;48.00;;;;;;6145636;29;20039;-76
2022/01/28 04:50:41;;;;;;;4.00;2.25;;;19.30;48.00;;;;;;6146096;29;20016;-77
2022/01/28 04:57:19;;;;;;;4.45;2.50;;;19.30;48.10;;;;;;6147633;29;20094;-77
2022/01/28 05:23:21;;;;;;;5.13;2.45;;;19.30;48.00;;;;;;6170647;28;20027;-76
2022/01/28 05:29:06;;;;;;;5.40;2.50;;;19.30;48.00;;;;;;6146643;28;20090;-76
2022/01/28 05:32:08;;;;;;;3.33;2.10;;;19.30;47.70;;;;;;6147176;28;20066;-76
2022/01/28 05:35:09;;;;;;;6.57;2.42;;;19.30;47.90;;;;;;6150819;28;20035;-76
2022/01/28 05:38:09;;;;;;;6.20;2.70;;;19.30;47.80;;;;;;6170504;28;20034;-76
2022/01/28 05:41:10;;;;;;;3.80;2.33;;;19.30;47.70;;;;;;6163245;28;20023;-75
2022/01/28 05:44:11;;;;;;;4.32;2.20;;;19.30;47.80;;;;;;6146931;29;20019;-77
2022/01/28 05:47:15;;;;;;;4.30;2.22;;;19.30;47.80;;;;;;6146322;29;20399;-76
2022/01/28 05:50:15;;;;;;;4.90;2.38;;;19.30;47.80;;;;;;6145654;29;20126;-77
2022/01/28 05:53:16;;;;;;;4.13;2.10;;;19.30;47.90;;;;;;6146123;29;20379;-77
2022/01/28 05:56:16;;;;;;;4.28;2.17;;;19.30;47.80;;;;;;6146225;29;20055;-77
2022/01/28 05:59:19;;;;;;;4.55;2.00;;;19.30;47.60;;;;;;6146403;29;20075;-77
2022/01/28 06:02:19;;;;;;;6.07;2.60;;;19.40;47.80;;;;;;6146244;28;20032;-76
2022/01/28 06:05:20;;;;;;;4.22;2.28;;;19.30;47.90;;;;;;6146457;28;20023;-77
2022/01/28 06:08:20;;;;;;;5.13;2.40;;;19.40;47.90;;;;;;6146347;28;20110;-76
2022/01/28 06:11:23;;;;;;;6.40;2.30;;;19.40;47.70;;;;;;6146469;28;20023;-76
2022/01/28 06:14:24;;;;;;;6.07;2.58;;;19.40;47.70;;;;;;6148238;28;20442;-76
2022/01/28 06:17:24;;;;;;;4.55;2.20;;;19.40;47.80;;;;;;6150627;28;20027;-76
2022/01/28 06:20:25;;;;;;;5.97;2.47;;;19.40;47.90;;;;;;6150561;28;20039;-77
2022/01/28 06:23:25;;;;;;;4.40;2.38;;;19.40;47.80;;;;;;6150308;28;20027;-77
2022/01/28 06:26:25;;;;;;;6.03;2.92;;;19.40;48.00;;;;;;6153412;28;20023;-76
2022/01/28 06:29:26;;;;;;;6.30;2.50;;;19.40;48.10;;;;;;6174076;28;20106;-78
2022/01/28 06:32:26;;;;;;;3.75;2.20;;;19.40;48.30;;;;;;6183395;28;20031;-77
2022/01/28 06:35:27;;;;;;;4.80;2.28;;;19.40;48.20;;;;;;6149957;28;20446;-76
2022/01/28 06:38:28;;;;;;;3.75;2.10;;;19.40;48.40;;;;;;6149802;28;20026;-77
2022/01/28 06:41:30;;;;;;;4.63;2.38;;;19.40;48.50;;;;;;6149974;28;20074;-77
2022/01/28 06:44:31;;;;;;;3.67;2.03;;;19.40;48.40;;;;;;6149949;29;20486;-77
2022/01/28 06:47:32;;;;;;;3.90;2.30;;;19.40;48.50;;;;;;6149806;29;20057;-77
2022/01/28 06:50:34;;;;;;;4.28;2.13;;;19.40;48.50;;;;;;6149885;29;20317;-77
2022/01/28 06:53:34;;;;;;;2.97;1.85;;;19.40;48.50;;;;;;6149686;29;20106;-77
2022/01/28 06:56:35;;;;;;;5.20;2.08;;;19.40;48.50;;;;;;6147517;29;20067;-77
2022/01/28 06:59:35;;;;;;;5.07;2.08;;;19.40;48.50;;;;;;6152647;28;20382;-77
2022/01/28 07:02:36;;;;;;;3.83;2.15;;;19.40;48.50;;;;;;6176609;28;20030;-76
2022/01/28 07:05:38;;;;;;;4.93;2.58;;;19.40;48.60;;;;;;6175234;28;20107;-77
2022/01/28 07:08:38;;;;;;;6.13;2.70;;;19.40;48.50;;;;;;6175091;28;20468;-75
2022/01/28 07:11:39;;;;;;;3.60;1.88;;;19.40;49.40;;;;;;6175282;28;20031;-75
2022/01/28 07:14:39;;;;;;;3.75;2.25;;;19.40;48.50;;;;;;6174934;28;20375;-75
2022/01/28 07:17:40;;;;;;;3.58;2.05;;;19.40;48.60;;;;;;6175367;28;20109;-75
2022/01/28 07:20:40;;;;;;;3.95;2.10;;;19.40;48.60;;;;;;6174936;28;20033;-77
2022/01/28 07:23:41;;;;;;;4.05;2.42;;;19.40;48.70;;;;;;6174896;28;20062;-77
2022/01/28 07:26:41;;;;;;;3.45;2.05;;;19.40;48.60;;;;;;6174481;28;20430;-76
2022/01/28 07:29:42;;;;;;;3.95;1.83;;;19.40;48.70;;;;;;6174807;28;20022;-77
2022/01/28 07:32:43;;;;;;;3.80;2.00;;;19.40;48.80;;;;;;6164935;28;20477;-77
2022/01/28 07:35:44;;;;;;;3.95;2.25;;;19.40;48.70;;;;;;6169599;28;20055;-76
2022/01/28 07:38:44;;;;;;;3.88;2.20;;;19.40;48.80;;;;;;6172605;28;20085;-75
2022/01/28 07:41:45;;;;;;;5.95;2.58;;;19.40;48.70;;;;;;6154016;28;20033;-75
2022/01/28 07:44:46;;;;;;;4.45;2.33;;;19.40;48.80;;;;;;6156840;28;20102;-76
2022/01/28 07:47:47;;;;;;;3.88;2.30;;;19.40;48.80;;;;;;6172897;28;20073;-76
2022/01/28 07:50:47;;;;;;;7.38;2.25;;;19.40;49.50;;;;;;6169785;28;20402;-75
2022/01/28 07:53:48;;;;;;;5.95;2.72;;;19.40;48.70;;;;;;6171186;28;20053;-75
2022/01/28 07:56:52;;;;;;;8.10;2.50;;;19.40;49.40;;;;;;6171258;28;20061;-74
2022/01/28 07:59:53;;;;;;;4.88;2.05;;;19.50;49.00;;;;;;6174058;28;20038;-76
2022/01/28 08:02:53;;;;;;;4.25;2.17;;;19.50;48.70;;;;;;6173005;28;20030;-76
2022/01/28 08:05:54;;;;;;;7.03;2.30;;;19.50;48.50;;;;;;6173170;28;20386;-75
2022/01/28 08:08:56;;;;;;;4.72;2.10;;;19.50;48.40;;;;;;6173473;28;20105;-75
2022/01/28 08:11:57;;;;;;;10.35;2.50;;;19.50;48.30;;;;;;6173629;28;20031;-75
2022/01/28 08:14:57;;;;;;;4.88;2.10;;;19.50;48.50;;;;;;6172230;28;20370;-76
2022/01/28 08:17:58;;;;;;;9.20;3.08;;;19.50;48.80;;;;;;6172205;28;20435;-76
2022/01/28 08:20:58;;;;;;;12.35;2.90;;;19.40;48.70;;;;;;6172267;28;20110;-76
2022/01/28 08:23:59;;;;;;;23.70;3.90;;;19.30;47.20;;;;;;6170879;28;20105;-76
2022/01/28 08:27:00;;;;;;;29.92;4.82;;;19.30;46.10;;;;;;6167851;28;20037;-76
2022/01/28 08:30:00;;;;;;;30.70;4.50;;;19.30;44.90;;;;;;6172376;28;20054;-76
2022/01/28 08:33:01;;;;;;;26.48;5.63;;;19.30;44.20;;;;;;6171651;28;20038;-76
2022/01/28 08:36:02;;;;;;;24.27;4.50;;;19.30;42.60;;;;;;6170713;28;20043;-75
2022/01/28 08:39:05;;;;;;;17.98;4.45;;;19.30;42.40;;;;;;6171950;28;20037;-76
2022/01/28 08:42:06;;;;;;;25.50;5.00;;;19.30;42.60;;;;;;6171307;28;20093;-76
2022/01/28 08:45:07;;;;;;;17.27;3.92;;;19.30;43.60;;;;;;6172071;28;20030;-76
2022/01/28 08:48:07;;;;;;;17.48;4.18;;;19.40;44.00;;;;;;6172084;28;20019;-76
2022/01/28 08:51:08;;;;;;;16.60;3.33;;;19.40;44.40;;;;;;6171752;28;20086;-75
2022/01/28 08:54:08;;;;;;;13.10;3.47;;;19.40;44.70;;;;;;6171349;28;20062;-75
2022/01/28 08:57:10;;;;;;;14.45;3.53;;;19.40;45.20;;;;;;6171666;28;20433;-76
2022/01/28 09:00:19;;;;;;;16.13;4.03;;;19.40;45.60;;;;;;6171706;28;20063;-76
2022/01/28 09:03:20;;;;;;;15.02;3.65;;;19.40;45.70;;;;;;6171384;28;20031;-75
2022/01/28 09:06:20;;;;;;;13.05;3.22;;;19.40;46.00;;;;;;6171184;28;20034;-75
2022/01/28 09:09:21;;;;;;;12.77;3.50;;;19.40;46.10;;;;;;6170774;28;20023;-74
2022/01/28 09:12:39;;;;;;;16.80;3.92;;;19.40;46.50;;;;;;6171623;28;20086;-75
2022/01/28 09:15:41;;;;;;;13.15;3.70;;;19.40;46.70;;;;;;6171195;28;20505;-75
2022/01/28 09:18:42;;;;;;;12.32;3.55;;;19.40;46.80;;;;;;6172476;28;20033;-76
2022/01/28 09:21:42;;;;;;;12.45;3.78;;;19.40;46.80;;;;;;6173349;28;20438;-76
2022/01/28 09:24:43;;;;;;;9.15;2.67;;;19.40;47.10;;;;;;6173055;28;20019;-77
2022/01/28 09:27:43;;;;;;;10.85;3.53;;;19.40;47.20;;;;;;6169180;28;20039;-76
2022/01/28 09:30:44;;;;;;;8.63;2.83;;;19.40;47.20;;;;;;6172658;28;20054;-76
2022/01/28 09:33:45;;;;;;;10.80;3.20;;;19.40;47.20;;;;;;6172310;28;20027;-74
2022/01/28 09:36:45;;;;;;;9.15;2.60;;;19.40;47.20;;;;;;6171284;28;20089;-75
2022/01/28 09:39:46;;;;;;;11.75;3.15;;;19.40;47.40;;;;;;6172094;28;20077;-76
2022/01/28 09:42:48;;;;;;;9.07;3.05;;;19.40;47.10;;;;;;6151893;28;20086;-75
2022/01/28 09:45:49;;;;;;;6.93;2.72;;;19.40;47.40;;;;;;6148372;29;20035;-76
2022/01/28 09:48:49;;;;;;;5.35;2.38;;;19.40;47.50;;;;;;6151656;28;20027;-75
2022/01/28 09:51:50;;;;;;;6.28;2.53;;;19.40;47.60;;;;;;6152833;29;20106;-75
2022/01/28 09:54:50;;;;;;;6.85;2.63;;;19.40;47.50;;;;;;6152662;29;20055;-75
2022/01/28 09:57:59;;;;;;;5.90;2.58;;;19.40;47.60;;;;;;6152688;29;20073;-75
2022/01/28 10:01:00;;;;;;;7.60;3.17;;;19.40;47.60;;;;;;6153251;28;20046;-75
2022/01/28 10:04:06;;;;;;;10.57;3.22;;;19.40;47.60;;;;;;6153192;29;20485;-75
2022/01/28 10:07:14;;;;;;;7.05;2.63;;;19.40;47.70;;;;;;6152837;29;20058;-76
2022/01/28 10:10:15;;;;;;;7.97;2.88;;;19.40;47.70;;;;;;6153135;29;20026;-76
2022/01/28 10:13:31;;;;;;;6.25;2.53;;;19.40;47.80;;;;;;6152972;29;20502;-76
2022/01/28 10:16:32;;;;;;;11.48;2.88;;;19.40;47.80;;;;;;6152462;29;20050;-75
2022/01/28 10:19:40;;;;;;;7.93;2.50;;;19.40;47.80;;;;;;6153319;28;20027;-75
2022/01/28 10:23:01;;;;;;;7.05;2.70;;;19.40;47.80;;;;;;6152326;29;20031;-75
2022/01/28 10:26:02;;;;;;;7.57;3.00;;;19.40;47.90;;;;;;6152426;28;20094;-74
2022/01/28 10:29:05;;;;;;;9.80;2.95;;;19.40;47.90;;;;;;6172819;28;20469;-75
2022/01/28 10:32:09;;;;;;;6.63;2.80;;;19.40;47.90;;;;;;6173358;28;20538;-76
2022/01/28 10:35:10;;;;;;;6.28;2.92;;;19.40;47.90;;;;;;6151920;28;20573;-75
2022/01/28 10:38:28;;;;;;;7.63;2.75;;;19.40;48.00;;;;;;6151980;28;20024;-74
2022/01/28 10:41:28;;;;;;;6.43;2.63;;;19.40;48.00;;;;;;6151876;28;20430;-75
2022/01/28 10:44:31;;;;;;;4.90;2.40;;;19.40;48.00;;;;;;6151569;29;20051;-75
2022/01/28 10:47:35;;;;;;;7.10;2.80;;;19.40;48.00;;;;;;6151514;29;20086;-75
2022/01/28 10:50:37;;;;;;;6.43;2.60;;;19.40;48.10;;;;;;6151631;29;20099;-76
2022/01/28 10:53:38;;;;;;;4.30;2.38;;;19.40;48.00;;;;;;6151605;29;20054;-75
2022/01/28 10:57:07;;;;;;;6.38;2.60;;;19.40;48.00;;;;;;6152057;29;20031;-75
2022/01/28 11:00:08;;;;;;;6.55;2.60;;;19.40;48.00;;;;;;6150295;28;20035;-76
2022/01/28 11:03:11;;;;;;;6.82;2.92;;;19.40;48.10;;;;;;6151898;29;20106;-76
2022/01/28 11:06:12;;;;;;;4.88;2.22;;;19.40;48.10;;;;;;6151194;29;20054;-75
2022/01/28 11:09:14;;;;;;;5.18;2.40;;;19.40;48.10;;;;;;6151441;29;20023;-76
2022/01/28 11:12:16;;;;;;;5.50;2.67;;;19.40;48.00;;;;;;6151030;29;20034;-75
2022/01/28 11:15:16;;;;;;;7.00;2.47;;;19.40;48.10;;;;;;6150849;28;20035;-76
2022/01/28 11:18:18;;;;;;;5.65;2.42;;;19.40;48.10;;;;;;6174988;28;20560;-76
2022/01/28 11:21:27;;;;;;;7.25;2.08;;;19.40;48.10;;;;;;6175076;28;20023;-76
2022/01/28 11:25:05;;;;;;;4.50;1.85;;;19.40;48.00;;;;;;6174974;28;20023;-76
2022/01/28 11:28:08;;;;;;;4.07;2.05;;;19.40;48.20;;;;;;6175130;28;20031;-74
2022/01/28 11:31:10;;;;;;;6.93;2.58;;;19.40;48.10;;;;;;6174770;28;20355;-74
2022/01/28 11:34:16;;;;;;;4.90;2.33;;;19.40;48.20;;;;;;6155334;28;20418;-75
2022/01/28 11:37:16;;;;;;;4.75;1.95;;;19.40;48.20;;;;;;6150639;28;20038;-76
2022/01/28 11:40:17;;;;;;;4.93;2.30;;;19.40;48.20;;;;;;6150717;28;20031;-75
2022/01/28 11:43:26;;;;;;;6.07;2.55;;;19.40;48.20;;;;;;6150880;29;20035;-75
2022/01/28 11:46:31;;;;;;;6.82;2.60;;;19.40;48.90;;;;;;6150450;29;20023;-75
2022/01/28 11:50:05;;;;;;;5.80;2.38;;;19.40;48.20;;;;;;6150280;29;20039;-76
2022/01/28 11:53:21;;;;;;;4.20;2.10;;;19.40;48.40;;;;;;6150186;29;20059;-76
2022/01/28 11:56:24;;;;;;;4.72;2.17;;;19.40;48.30;;;;;;6149913;29;20027;-75
2022/01/28 11:59:32;;;;;;;4.68;2.28;;;19.40;48.30;;;;;;6151541;28;20034;-75
2022/01/28 12:02:46;;;;;;;4.97;2.22;;;19.40;48.30;;;;;;6173925;28;20397;-76
2022/01/28 12:05:47;;;;;;;5.60;2.47;;;19.40;48.30;;;;;;6172826;28;20038;-75
2022/01/28 12:08:48;;;;;;;4.13;2.15;;;19.40;48.30;;;;;;6173625;28;20034;-75
2022/01/28 12:11:48;;;;;;;5.78;2.45;;;19.40;48.30;;;;;;6172650;28;20027;-75
2022/01/28 12:14:54;;;;;;;4.57;2.17;;;19.40;48.30;;;;;;6173910;28;20042;-75
2022/01/28 12:18:08;;;;;;;6.07;2.00;;;19.40;48.30;;;;;;6173616;28;20122;-75
2022/01/28 12:21:12;;;;;;;5.25;2.15;;;19.40;48.30;;;;;;6173655;28;20027;-75
2022/01/28 12:24:19;;;;;;;5.03;2.40;;;19.40;48.30;;;;;;6173773;28;20019;-75
2022/01/28 12:27:21;;;;;;;6.82;2.40;;;19.40;48.30;;;;;;6163170;28;20027;-75
2022/01/28 12:30:33;;;;;;;4.03;2.05;;;19.40;48.30;;;;;;6149597;28;20031;-75
2022/01/28 12:33:38;;;;;;;5.97;2.08;;;19.40;48.30;;;;;;6163720;28;20023;-75
2022/01/28 12:36:39;;;;;;;5.07;2.30;;;19.40;48.30;;;;;;6172017;28;20030;-75
2022/01/28 12:39:50;;;;;;;4.65;2.13;;;19.40;48.30;;;;;;6173219;28;20029;-75
2022/01/28 12:42:52;;;;;;;6.47;2.40;;;19.40;48.30;;;;;;6173336;28;20362;-76
2022/01/28 12:46:03;;;;;;;4.25;1.80;;;19.40;48.30;;;;;;6173281;28;20441;-75
2022/01/28 12:49:07;;;;;;;4.65;2.00;;;19.40;48.30;;;;;;6174879;28;20446;-75
2022/01/28 12:52:09;;;;;;;4.57;2.15;;;19.40;48.30;;;;;;6173058;28;20433;-76
2022/01/28 12:55:09;;;;;;;3.35;1.85;;;19.40;48.40;;;;;;6172754;28;20182;-76
2022/01/28 12:58:10;;;;;;;3.30;1.73;;;19.40;48.30;;;;;;6173255;28;20470;-75
2022/01/28 13:01:14;;;;;;;3.78;2.13;;;19.40;48.40;;;;;;6173432;28;20064;-76
2022/01/28 13:04:17;;;;;;;3.50;1.75;;;19.40;48.40;;;;;;6172834;28;20089;-73
2022/01/28 13:10:39;;;;;;;4.30;2.13;;;19.40;48.40;;;;;;6172765;28;20027;-75
2022/01/28 13:13:54;;;;;;;4.72;1.98;;;19.40;48.50;;;;;;6172818;28;20046;-75
2022/01/28 13:16:55;;;;;;;4.30;2.10;;;19.40;48.40;;;;;;6172560;28;20031;-75
2022/01/28 13:19:58;;;;;;;3.65;2.00;;;19.40;48.50;;;;;;6172486;28;20074;-75
2022/01/28 13:22:59;;;;;;;3.17;1.77;;;19.40;48.40;;;;;;6174401;28;20106;-75
2022/01/28 13:26:05;;;;;;;3.63;1.85;;;19.40;48.50;;;;;;6177423;28;20027;-76
2022/01/28 13:29:10;;;;;;;3.80;2.00;;;19.40;48.50;;;;;;6153496;28;20111;-75
2022/01/28 13:32:20;;;;;;;4.72;2.17;;;19.40;48.50;;;;;;6156767;28;20085;-75
2022/01/28 13:35:25;;;;;;;3.67;1.90;;;19.40;49.10;;;;;;6176972;28;20089;-75
2022/01/28 13:38:34;;;;;;;3.20;1.67;;;19.40;48.50;;;;;;6177210;28;20039;-74
2022/01/28 13:41:36;;;;;;;3.88;2.10;;;19.40;48.50;;;;;;6166537;28;20110;-75
2022/01/28 13:44:39;;;;;;;3.50;1.80;;;19.40;48.50;;;;;;6153404;29;20111;-74
2022/01/28 13:47:49;;;;;;;4.13;1.92;;;19.40;48.50;;;;;;6153065;29;20375;-75
2022/01/28 13:50:52;;;;;;;3.85;1.73;;;19.40;48.60;;;;;;6152955;29;20416;-75
2022/01/28 13:54:15;;;;;;;4.00;2.25;;;19.40;48.50;;;;;;6153034;29;20406;-75
2022/01/28 13:57:16;;;;;;;4.45;1.98;;;19.40;48.50;;;;;;6152968;29;20032;-75
2022/01/28 14:00:16;;;;;;;2.65;1.60;;;19.40;48.60;;;;;;6153148;29;20135;-76
2022/01/28 14:03:22;;;;;;;2.60;1.52;;;19.40;48.50;;;;;;6152816;29;20039;-76
2022/01/28 14:06:30;;;;;;;3.42;2.03;;;19.40;48.60;;;;;;6152703;29;20039;-75
2022/01/28 14:09:53;;;;;;;3.42;1.67;;;19.40;48.60;;;;;;6153024;29;20328;-75
2022/01/28 14:12:56;;;;;;;2.90;1.60;;;19.40;48.60;;;;;;6153609;28;20031;-76
2022/01/28 14:16:14;;;;;;;4.28;1.90;;;19.40;48.70;;;;;;6152263;29;20455;-75
2022/01/28 14:19:15;;;;;;;3.53;1.77;;;19.40;48.70;;;;;;6152759;29;20030;-76
2022/01/28 14:22:16;;;;;;;3.30;1.67;;;19.40;48.60;;;;;;6152548;29;20027;-75
2022/01/28 14:25:16;;;;;;;3.28;1.90;;;19.40;48.60;;;;;;6152373;29;20508;-75
2022/01/28 14:31:17;;;;;;;2.60;1.40;;;19.40;48.70;;;;;;6176206;28;20050;-75
2022/01/28 14:34:19;;;;;;;3.22;1.67;;;19.40;48.70;;;;;;6154641;28;20499;-75
2022/01/28 14:37:21;;;;;;;3.83;1.77;;;19.40;48.60;;;;;;6151854;28;20028;-76
2022/01/28 14:40:22;;;;;;;2.70;1.50;;;19.40;48.60;;;;;;6151927;28;20110;-75
2022/01/28 14:43:22;;;;;;;4.07;1.55;;;19.40;48.60;;;;;;6151828;29;20041;-75
2022/01/28 14:46:23;;;;;;;5.80;2.13;;;19.40;48.70;;;;;;6151949;29;20098;-75
2022/01/28 14:49:23;;;;;;;3.80;1.95;;;19.40;48.70;;;;;;6151400;29;20174;-75
2022/01/28 14:52:29;;;;;;;4.05;1.58;;;19.40;48.70;;;;;;6151926;29;20528;-77
2022/01/28 14:55:29;;;;;;;;;;;19.40;48.70;;;;;;6150256;28;20073;-76
2022/01/28 14:58:29;;;;;;;3.15;1.67;;;19.40;48.70;;;;;;6154351;28;19906;-75
2022/01/28 15:01:30;;;;;;;4.05;1.40;;;19.40;48.80;;;;;;6175578;28;20037;-74
2022/01/28 15:04:30;;;;;;;3.80;2.00;;;19.40;48.70;;;;;;6175430;28;20026;-76
2022/01/28 15:07:32;;;;;;;4.57;1.67;;;19.40;48.70;;;;;;6175354;28;20027;-75
2022/01/28 15:10:33;;;;;;;3.53;1.92;;;19.40;48.70;;;;;;6171956;28;20436;-75
2022/01/28 15:13:34;;;;;;;3.08;1.67;;;19.40;48.70;;;;;;6175229;28;20569;-76
2022/01/28 15:16:35;;;;;;;3.45;1.80;;;19.40;48.70;;;;;;6175122;28;20030;-76
2022/01/28 15:19:35;;;;;;;2.58;1.60;;;19.40;49.50;;;;;;6156744;28;20406;-75
2022/01/28 15:22:36;;;;;;;3.63;1.85;;;19.40;48.70;;;;;;6172245;28;20023;-76
2022/01/28 15:25:36;;;;;;;9.73;1.63;;;19.40;48.70;;;;;;6172876;28;20034;-76
2022/01/28 15:28:48;;;;;;;4.43;1.80;;;19.40;48.80;;;;;;6173616;28;20026;-75
2022/01/28 15:38:09;;;;;;;3.45;1.70;;;19.40;48.70;;;;;;6172848;28;20068;-76
2022/01/28 15:41:12;;;;;;;4.63;1.92;;;19.40;48.70;;;;;;6172056;28;20358;-75
2022/01/28 15:44:13;;;;;;;2.17;1.60;;;19.40;48.70;;;;;;6171753;28;20022;-75
2022/01/28 15:47:13;;;;;;;8.52;4.05;;;19.40;48.70;;;;;;6196376;28;20444;-75
2022/01/28 15:50:14;;;;;;;5.68;3.03;;;19.40;48.70;;;;;;6196470;28;20028;-76
2022/01/28 15:53:15;;;;;;;7.18;4.47;;;19.40;48.60;;;;;;6196044;28;20069;-76
2022/01/28 15:56:17;;;;;;;6.40;3.83;;;19.40;48.50;;;;;;6196626;28;20030;-75
2022/01/28 15:59:18;;;;;;;7.00;4.60;;;19.40;48.50;;;;;;6187974;28;20093;-75
2022/01/28 16:02:18;;;;;;;7.53;4.60;;;19.40;48.60;;;;;;6172411;28;20027;-75
2022/01/28 16:05:19;;;;;;;8.27;4.75;;;19.40;48.60;;;;;;6170461;28;20065;-76
2022/01/28 16:08:21;;;;;;;8.18;4.70;;;19.40;48.60;;;;;;6163355;28;20112;-75
2022/01/28 16:11:29;;;;;;;12.18;5.15;;;19.40;48.60;;;;;;6171769;28;20450;-75
2022/01/28 16:14:32;;;;;;;12.27;4.80;;;19.40;47.90;;;;;;6171590;28;20045;-75
2022/01/28 16:17:39;;;;;;;12.50;4.95;;;19.30;46.50;;;;;;6173105;28;20027;-76
2022/01/28 16:20:40;;;;;;;12.02;5.28;;;19.30;45.80;;;;;;6170940;28;20394;-76
2022/01/28 16:23:41;;;;;;;11.40;5.07;;;19.30;44.50;;;;;;6170955;28;20033;-76
2022/01/28 16:26:41;;;;;;;10.30;4.35;;;19.30;42.90;;;;;;6171335;28;20027;-76
2022/01/28 16:29:42;;;;;;;12.73;4.18;;;19.30;41.90;;;;;;6170751;28;20027;-77
2022/01/28 16:32:43;;;;;;;15.00;4.18;;;19.30;41.20;;;;;;6170975;28;20082;-76
2022/01/28 16:35:43;;;;;;;46.63;6.57;;;19.30;41.80;;;;;;6171608;28;20034;-77
2022/01/28 16:38:44;;;;;;;42.72;5.65;;;19.30;43.40;;;;;;6171396;28;20027;-75
2022/01/28 16:41:46;;;;;;;50.83;6.22;;;19.30;42.90;;;;;;6158760;28;20027;-76
2022/01/28 16:44:54;;;;;;;50.20;5.55;;;19.30;43.40;;;;;;6147242;29;20494;-76
2022/01/28 16:47:55;;;;;;;44.97;5.22;;;19.30;43.70;;;;;;6147503;29;20513;-75
2022/01/28 16:50:55;;;;;;;30.92;5.50;;;19.30;43.90;;;;;;6147130;29;20102;-76
2022/01/28 16:53:56;;;;;;;25.75;5.82;;;19.30;43.70;;;;;;6147143;29;20110;-75
2022/01/28 16:56:56;;;;;;;28.42;5.25;;;19.30;44.60;;;;;;6145266;28;20587;-75
2022/01/28 16:59:57;;;;;;;25.05;4.65;;;19.30;45.10;;;;;;6147165;29;20071;-75
2022/01/28 17:02:58;;;;;;;20.88;4.53;;;19.30;45.30;;;;;;6146834;29;20078;-75
2022/01/28 17:05:58;;;;;;;18.83;4.70;;;19.30;45.70;;;;;;6147114;29;20023;-75
2022/01/28 17:09:00;;;;;;;13.73;4.45;;;19.40;45.90;;;;;;6147244;29;20034;-75
2022/01/28 17:12:28;;;;;;;17.50;4.45;;;19.40;46.10;;;;;;6146931;29;20110;-76
2022/01/28 17:15:27;;;;;;;16.90;4.45;;;19.40;46.30;;;;;;6162518;28;20501;-75
2022/01/28 17:18:27;;;;;;;13.57;3.67;;;19.40;46.40;;;;;;6168712;28;20038;-76
2022/01/28 17:21:28;;;;;;;7.75;3.22;;;19.30;46.40;;;;;;6168977;28;20023;-75
2022/01/28 17:24:28;;;;;;;16.90;4.03;;;19.40;46.60;;;;;;6162511;28;20078;-75